Terminal Aerodrome Forecast
Issued by NWS

Home | Current Version | Previous Version | Text Only | Print | Product List | Glossary On
Versions: 1 2 3 4 5 6 7 8 9 10 11 12 13 14 15 16 17 18 19
207
FTUS43 KLSX 170621 AAA
TAFUIN
TAF AMD
KUIN 170621Z 1706/1806 21013G20KT P6SM SCT008 OVC014
      TEMPO 1706/1708 5SM -SHRA BKN009
     FM170800 22011KT P6SM BKN040
     FM171100 24010KT P6SM BKN020
     FM171600 26013G19KT P6SM SCT030
     FM180100 27007KT P6SM SKC=

USA.gov is the U.S. government's official web portal to all federal, state and local government web resources and services.